createdAt,value
2016-08-23T00:00:45.215Z,0
2016-08-23T00:01:44.467Z,0
2016-08-23T00:02:43.850Z,0
2016-08-23T00:03:45.126Z,0
2016-08-23T00:04:45.146Z,0
2016-08-23T00:05:44.467Z,0
2016-08-23T00:06:45.214Z,0
2016-08-23T00:07:44.516Z,0
2016-08-23T00:08:45.311Z,0
2016-08-23T00:09:43.846Z,0
2016-08-23T00:10:44.562Z,0
2016-08-23T00:11:43.284Z,0
2016-08-23T00:12:45.346Z,0
2016-08-23T00:13:44.026Z,0
2016-08-23T00:14:45.400Z,0
2016-08-23T00:15:44.706Z,0
2016-08-23T00:16:45.446Z,0
2016-08-23T00:17:45.476Z,0
2016-08-23T00:18:44.105Z,0
2016-08-23T00:19:44.095Z,0
2016-08-23T00:20:43.436Z,0
2016-08-23T00:21:45.557Z,0
2016-08-23T00:22:44.871Z,0
2016-08-23T00:23:44.878Z,0
2016-08-23T00:24:44.267Z,0
2016-08-23T00:25:44.945Z,0
2016-08-23T00:26:45.066Z,0
2016-08-23T00:27:45.066Z,0
2016-08-23T00:28:45.021Z,0
2016-08-23T00:29:45.046Z,0
2016-08-23T00:30:45.765Z,0
2016-08-23T00:31:45.793Z,0
2016-08-23T00:32:45.103Z,0
2016-08-23T00:33:45.181Z,0
2016-08-23T00:34:45.860Z,0
2016-08-23T00:35:46.005Z,0
2016-08-23T00:36:45.938Z,0
2016-08-23T00:37:46.007Z,0
2016-08-23T00:38:45.945Z,0
2016-08-23T00:39:45.991Z,0
2016-08-23T00:40:45.289Z,0
2016-08-23T00:41:46.046Z,0
2016-08-23T00:42:46.046Z,0
2016-08-23T00:43:46.086Z,0
2016-08-23T00:44:46.233Z,0
2016-08-23T00:45:45.423Z,0
2016-08-23T00:46:45.501Z,0
2016-08-23T00:47:45.463Z,0
2016-08-23T00:48:45.498Z,0
2016-08-23T00:49:45.516Z,0
2016-08-23T00:50:44.834Z,0
2016-08-23T00:51:45.572Z,0
2016-08-23T00:52:45.596Z,0
2016-08-23T00:53:46.310Z,0
2016-08-23T00:54:46.363Z,0
2016-08-23T00:55:46.363Z,0
2016-08-23T00:56:45.686Z,0
2016-08-23T00:57:46.431Z,0
2016-08-23T00:58:45.757Z,0
2016-08-23T00:59:46.457Z,0
2016-08-23T01:00:45.067Z,0
2016-08-23T01:01:45.798Z,0
2016-08-23T01:02:46.525Z,0
2016-08-23T01:03:45.877Z,0
2016-08-23T01:04:45.164Z,0
2016-08-23T01:05:45.256Z,0
2016-08-23T01:06:45.243Z,0
2016-08-23T01:07:46.655Z,0
2016-08-23T01:08:46.005Z,0
2016-08-23T01:09:44.666Z,0
2016-08-23T01:10:45.300Z,0
2016-08-23T01:11:46.033Z,0
2016-08-23T01:12:46.786Z,0
2016-08-23T01:13:45.490Z,0
2016-08-23T01:14:46.874Z,0
2016-08-23T01:15:46.137Z,0
2016-08-23T01:16:46.166Z,0
2016-08-23T01:17:46.882Z,0
2016-08-23T01:18:46.218Z,0
2016-08-23T01:19:46.945Z,0
2016-08-23T01:20:46.965Z,0
2016-08-23T01:21:46.372Z,0
2016-08-23T01:22:46.325Z,0
2016-08-23T01:23:46.325Z,0
2016-08-23T01:24:46.348Z,0
2016-08-23T01:25:47.180Z,0
2016-08-23T01:26:47.119Z,0
2016-08-23T01:27:46.434Z,0
2016-08-23T01:28:45.746Z,0
2016-08-23T01:29:47.187Z,0
2016-08-23T01:30:46.563Z,0
2016-08-23T01:31:45.816Z,0
2016-08-23T01:32:47.254Z,0
2016-08-23T01:33:47.286Z,0
2016-08-23T01:34:46.608Z,0
2016-08-23T01:35:47.316Z,0
2016-08-23T01:36:46.646Z,0
2016-08-23T01:37:46.711Z,0
2016-08-23T01:38:45.977Z,0
2016-08-23T01:39:46.095Z,0
2016-08-23T01:40:46.730Z,0
2016-08-23T01:41:45.417Z,0
2016-08-23T01:42:46.087Z,0
2016-08-23T01:43:46.914Z,0
2016-08-23T01:44:46.126Z,0
2016-08-23T01:45:46.155Z,0
2016-08-23T01:46:46.890Z,0
2016-08-23T01:47:46.194Z,0
2016-08-23T01:48:46.316Z,0
2016-08-23T01:49:46.251Z,0
2016-08-23T01:50:46.275Z,0
2016-08-23T01:51:45.587Z,0
2016-08-23T01:52:47.087Z,0
2016-08-23T01:53:47.735Z,0
2016-08-23T01:54:47.148Z,0
2016-08-23T01:55:47.796Z,0
2016-08-23T01:56:47.157Z,0
2016-08-23T01:57:46.434Z,0
2016-08-23T01:58:46.461Z,0
2016-08-23T01:59:47.891Z,0
2016-08-23T02:00:47.993Z,0
2016-08-23T02:01:47.246Z,0
2016-08-23T02:02:47.344Z,0
2016-08-23T02:03:47.397Z,0
2016-08-23T02:04:46.597Z,0
2016-08-23T02:05:46.639Z,0
2016-08-23T02:06:47.365Z,0
2016-08-23T02:07:48.082Z,0
2016-08-23T02:08:48.124Z,0
2016-08-23T02:09:46.745Z,0
2016-08-23T02:10:48.176Z,0
2016-08-23T02:11:47.532Z,0
2016-08-23T02:12:46.097Z,0
2016-08-23T02:13:48.226Z,0
2016-08-23T02:14:47.688Z,0
2016-08-23T02:15:48.265Z,0
2016-08-23T02:16:47.682Z,0
2016-08-23T02:17:47.647Z,0
2016-08-23T02:18:47.678Z,0
2016-08-23T02:19:47.683Z,0
2016-08-23T02:20:46.999Z,0
2016-08-23T02:21:48.435Z,0
2016-08-23T02:22:47.745Z,0
2016-08-23T02:23:48.488Z,0
2016-08-23T02:24:48.486Z,0
2016-08-23T02:25:48.529Z,0
2016-08-23T02:26:47.848Z,0
2016-08-23T02:27:47.167Z,0
2016-08-23T02:28:47.885Z,0
2016-08-23T02:29:47.962Z,0
2016-08-23T02:30:48.634Z,0
2016-08-23T02:31:47.276Z,0
2016-08-23T02:32:47.976Z,0
2016-08-23T02:33:48.765Z,0
2016-08-23T02:34:48.736Z,0
2016-08-23T02:35:47.362Z,0
2016-08-23T02:36:48.082Z,0
2016-08-23T02:37:48.106Z,0
2016-08-23T02:38:46.721Z,0
2016-08-23T02:39:48.863Z,0
2016-08-23T02:40:48.203Z,0
2016-08-23T02:41:48.906Z,0
2016-08-23T02:42:48.944Z,0
2016-08-23T02:43:48.256Z,0
2016-08-23T02:44:49.016Z,0
2016-08-23T02:45:49.004Z,0
2016-08-23T02:46:49.055Z,0
2016-08-23T02:47:49.064Z,0
2016-08-23T02:48:47.681Z,0
2016-08-23T02:49:49.112Z,0
2016-08-23T02:50:48.414Z,0
2016-08-23T02:51:48.493Z,0
2016-08-23T02:52:47.775Z,0
2016-08-23T02:53:49.195Z,0
2016-08-23T02:54:48.523Z,0
2016-08-23T02:55:47.875Z,0
2016-08-23T02:56:48.553Z,0
2016-08-23T02:57:48.577Z,0
2016-08-23T02:58:49.314Z,0
2016-08-23T02:59:48.634Z,0
2016-08-23T03:00:48.038Z,0
2016-08-23T03:01:48.743Z,0
2016-08-23T03:02:48.753Z,0
2016-08-23T03:03:49.457Z,0
2016-08-23T03:04:48.048Z,0
2016-08-23T03:05:48.780Z,0
2016-08-23T03:06:48.810Z,0
2016-08-23T03:07:48.832Z,0
2016-08-23T03:08:49.560Z,0
2016-08-23T03:09:48.871Z,0
2016-08-23T03:10:48.195Z,0
2016-08-23T03:11:49.035Z,0
2016-08-23T03:12:49.665Z,0
2016-08-23T03:13:48.324Z,0
2016-08-23T03:14:47.571Z,0
2016-08-23T03:15:49.112Z,0
2016-08-23T03:16:49.030Z,0
2016-08-23T03:17:49.087Z,0
2016-08-23T03:18:48.415Z,0
2016-08-23T03:19:48.411Z,0
2016-08-23T03:20:47.775Z,0
2016-08-23T03:21:48.453Z,0
2016-08-23T03:22:48.556Z,0
2016-08-23T03:23:49.916Z,0
2016-08-23T03:24:47.824Z,0
2016-08-23T03:25:48.554Z,0
2016-08-23T03:26:49.319Z,0
2016-08-23T03:27:48.824Z,0
2016-08-23T03:28:49.333Z,0
2016-08-23T03:29:48.240Z,0
2016-08-23T03:30:49.375Z,0
2016-08-23T03:31:48.003Z,0
2016-08-23T03:32:49.432Z,0
2016-08-23T03:33:48.937Z,0
2016-08-23T03:34:49.491Z,0
2016-08-23T03:35:50.222Z,0
2016-08-23T03:36:49.524Z,0
2016-08-23T03:37:49.663Z,0
2016-08-23T03:38:49.673Z,0
2016-08-23T03:39:48.943Z,0
2016-08-23T03:40:49.772Z,0
2016-08-23T03:41:48.295Z,0
2016-08-23T03:42:49.050Z,0
2016-08-23T03:43:48.979Z,0
2016-08-23T03:44:50.426Z,0
2016-08-23T03:45:49.743Z,0
2016-08-23T03:46:49.111Z,0
2016-08-23T03:47:49.074Z,4
2016-08-23T03:48:49.914Z,4
2016-08-23T03:49:49.129Z,0
2016-08-23T03:50:50.573Z,4
2016-08-23T03:51:49.905Z,4
2016-08-23T03:52:49.210Z,4
2016-08-23T03:53:50.144Z,8
2016-08-23T03:54:49.265Z,4
2016-08-23T03:55:49.351Z,8
2016-08-23T03:56:48.630Z,12
2016-08-23T03:57:50.761Z,12
2016-08-23T03:58:49.334Z,16
2016-08-23T03:59:48.661Z,16
2016-08-23T04:00:49.441Z,16
2016-08-23T04:01:49.434Z,20
2016-08-23T04:02:50.153Z,20
2016-08-23T04:03:50.183Z,24
2016-08-23T04:04:49.551Z,32
2016-08-23T04:05:49.515Z,36
2016-08-23T04:06:51.070Z,44
2016-08-23T04:07:50.977Z,52
2016-08-23T04:08:50.306Z,60
2016-08-23T04:09:50.345Z,72
2016-08-23T04:10:50.412Z,80
2016-08-23T04:11:49.658Z,88
2016-08-23T04:12:49.692Z,100
2016-08-23T04:13:51.144Z,112
2016-08-23T04:14:50.443Z,120
2016-08-23T04:15:49.922Z,128
2016-08-23T04:16:50.492Z,124
2016-08-23T04:17:50.552Z,124
2016-08-23T04:18:51.265Z,120
2016-08-23T04:19:50.566Z,132
2016-08-23T04:20:50.605Z,160
2016-08-23T04:21:50.704Z,180
2016-08-23T04:22:50.658Z,184
2016-08-23T04:23:50.662Z,204
2016-08-23T04:24:49.405Z,224
2016-08-23T04:25:50.706Z,236
2016-08-23T04:26:50.083Z,244
2016-08-23T04:27:51.473Z,232
2016-08-23T04:28:51.511Z,216
2016-08-23T04:29:49.475Z,224
2016-08-23T04:30:49.724Z,256
2016-08-23T04:31:50.153Z,276
2016-08-23T04:32:51.605Z,280
2016-08-23T04:33:50.909Z,332
2016-08-23T04:34:50.933Z,344
2016-08-23T04:35:51.653Z,340
2016-08-23T04:36:51.690Z,384
2016-08-23T04:37:50.379Z,396
2016-08-23T04:38:49.624Z,416
2016-08-23T04:39:51.338Z,444
2016-08-23T04:40:51.082Z,468
2016-08-23T04:41:51.254Z,484
2016-08-23T04:42:51.854Z,464
2016-08-23T04:43:49.854Z,448
2016-08-23T04:44:51.878Z,496
2016-08-23T04:45:51.223Z,564
2016-08-23T04:46:51.213Z,564
2016-08-23T04:47:50.518Z,548
2016-08-23T04:48:50.671Z,668
2016-08-23T04:49:50.602Z,768
2016-08-23T04:50:51.345Z,780
2016-08-23T04:51:52.046Z,792
2016-08-23T04:52:51.474Z,828
2016-08-23T04:53:51.393Z,852
2016-08-23T04:54:51.430Z,892
2016-08-23T04:55:51.447Z,936
2016-08-23T04:56:50.763Z,952
2016-08-23T04:57:50.790Z,960
2016-08-23T04:58:51.528Z,984
2016-08-23T04:59:51.543Z,976
2016-08-23T05:00:51.614Z,964
2016-08-23T05:01:50.894Z,964
2016-08-23T05:02:50.904Z,956
2016-08-23T05:03:51.014Z,976
2016-08-23T05:04:51.644Z,1032
2016-08-23T05:05:51.782Z,1052
2016-08-23T05:06:52.410Z,1084
2016-08-23T05:07:51.103Z,1148
2016-08-23T05:08:50.351Z,1208
2016-08-23T05:09:51.773Z,1268
2016-08-23T05:10:51.803Z,1340
2016-08-23T05:11:51.836Z,1392
2016-08-23T05:12:51.248Z,1388
2016-08-23T05:13:51.870Z,1348
2016-08-23T05:14:51.332Z,1308
2016-08-23T05:15:51.240Z,1280
2016-08-23T05:16:51.965Z,1280
2016-08-23T05:17:51.263Z,1316
2016-08-23T05:18:52.823Z,1372
2016-08-23T05:19:51.318Z,1440
2016-08-23T05:20:51.328Z,1512
2016-08-23T05:21:51.357Z,1576
2016-08-23T05:22:52.854Z,1644
2016-08-23T05:23:50.721Z,1740
2016-08-23T05:24:50.731Z,1872
2016-08-23T05:25:52.215Z,2032
2016-08-23T05:26:52.207Z,2172
2016-08-23T05:27:52.313Z,2264
2016-08-23T05:28:50.914Z,2260
2016-08-23T05:29:52.996Z,2136
2016-08-23T05:30:51.777Z,2032
2016-08-23T05:31:52.493Z,2004
2016-08-23T05:32:52.504Z,2000
2016-08-23T05:33:53.231Z,1952
2016-08-23T05:34:52.503Z,1888
2016-08-23T05:35:52.542Z,1852
2016-08-23T05:36:51.832Z,1844
2016-08-23T05:37:52.516Z,1856
2016-08-23T05:38:51.993Z,1888
2016-08-23T05:39:52.524Z,1928
2016-08-23T05:40:53.404Z,2008
2016-08-23T05:41:52.560Z,2124
2016-08-23T05:42:51.925Z,2260
2016-08-23T05:43:53.301Z,2364
2016-08-23T05:44:51.922Z,2480
2016-08-23T05:45:52.646Z,2592
2016-08-23T05:46:52.707Z,2564
2016-08-23T05:47:53.404Z,2484
2016-08-23T05:48:53.454Z,2548
2016-08-23T05:49:52.108Z,2660
2016-08-23T05:50:52.776Z,2716
2016-08-23T05:51:52.918Z,2872
2016-08-23T05:52:51.469Z,3008
2016-08-23T05:53:52.151Z,3132
2016-08-23T05:54:53.578Z,3116
2016-08-23T05:55:52.933Z,3044
2016-08-23T05:56:51.687Z,3104
2016-08-23T05:57:52.253Z,3056
2016-08-23T05:58:53.681Z,3004
2016-08-23T05:59:53.022Z,2808
2016-08-23T06:00:53.788Z,2564
2016-08-23T06:01:53.051Z,2436
2016-08-23T06:02:53.162Z,2332
2016-08-23T06:03:53.792Z,2340
2016-08-23T06:04:53.844Z,2492
2016-08-23T06:05:53.166Z,2604
2016-08-23T06:06:53.214Z,2632
2016-08-23T06:07:52.494Z,2572
2016-08-23T06:08:53.224Z,2468
2016-08-23T06:09:53.960Z,2452
2016-08-23T06:10:53.252Z,2384
2016-08-23T06:11:53.413Z,2228
2016-08-23T06:12:54.024Z,2004
2016-08-23T06:13:52.701Z,1860
2016-08-23T06:14:54.071Z,1848
2016-08-23T06:15:53.450Z,1904
2016-08-23T06:16:53.423Z,1980
2016-08-23T06:17:53.442Z,2104
2016-08-23T06:18:52.877Z,2292
2016-08-23T06:19:53.513Z,2368
2016-08-23T06:20:53.556Z,2260
2016-08-23T06:21:53.551Z,2396
2016-08-23T06:22:53.574Z,2272
2016-08-23T06:23:53.603Z,1752
2016-08-23T06:24:54.351Z,1876
2016-08-23T06:25:53.654Z,2028
2016-08-23T06:26:52.963Z,2028
2016-08-23T06:27:53.682Z,2092
2016-08-23T06:28:53.722Z,2120
2016-08-23T06:29:53.848Z,2168
2016-08-23T06:30:54.457Z,2264
2016-08-23T06:31:53.839Z,2688
2016-08-23T06:32:52.419Z,2880
2016-08-23T06:33:53.223Z,2960
2016-08-23T06:34:54.590Z,3028
2016-08-23T06:35:53.902Z,2696
2016-08-23T06:36:53.221Z,2364
2016-08-23T06:37:53.993Z,2240
2016-08-23T06:38:53.970Z,2192
2016-08-23T06:39:54.003Z,2300
2016-08-23T06:40:54.013Z,2400
2016-08-23T06:41:54.034Z,2620
2016-08-23T06:42:53.364Z,2720
2016-08-23T06:43:54.114Z,2724
2016-08-23T06:44:55.112Z,2668
2016-08-23T06:45:54.832Z,2496
2016-08-23T06:46:54.188Z,2252
2016-08-23T06:47:54.204Z,2148
2016-08-23T06:48:55.332Z,2212
2016-08-23T06:49:55.184Z,2280
2016-08-23T06:50:54.279Z,2308
2016-08-23T06:51:55.091Z,2348
2016-08-23T06:52:54.305Z,2356
2016-08-23T06:53:53.646Z,2444
2016-08-23T06:54:54.376Z,2580
2016-08-23T06:55:53.797Z,2728
2016-08-23T06:56:53.718Z,2948
2016-08-23T06:57:53.814Z,3284
2016-08-23T06:58:53.762Z,3704
2016-08-23T06:59:53.784Z,3976
2016-08-23T07:00:53.814Z,3884
2016-08-23T07:01:54.545Z,3672
2016-08-23T07:02:55.288Z,3628
2016-08-23T07:03:53.897Z,3368
2016-08-23T07:04:55.337Z,3020
2016-08-23T07:05:55.347Z,2912
2016-08-23T07:06:54.683Z,3012
2016-08-23T07:07:54.045Z,3316
2016-08-23T07:08:54.773Z,3736
2016-08-23T07:09:54.757Z,4064
2016-08-23T07:10:54.754Z,4168
2016-08-23T07:11:54.785Z,4072
2016-08-23T07:12:54.102Z,3992
2016-08-23T07:13:54.843Z,4216
2016-08-23T07:14:54.899Z,4544
2016-08-23T07:15:54.237Z,4876
2016-08-23T07:16:54.223Z,5612
2016-08-23T07:17:55.015Z,5896
2016-08-23T07:18:53.613Z,6024
2016-08-23T07:19:55.032Z,6380
2016-08-23T07:20:55.741Z,6824
2016-08-23T07:21:54.336Z,6688
2016-08-23T07:22:55.773Z,6368
2016-08-23T07:23:55.083Z,6236
2016-08-23T07:24:55.473Z,6140
2016-08-23T07:25:55.306Z,6088
2016-08-23T07:26:55.482Z,6460
2016-08-23T07:27:55.302Z,7176
2016-08-23T07:28:55.515Z,7248
2016-08-23T07:29:55.302Z,6640
2016-08-23T07:30:55.524Z,6624
2016-08-23T07:31:56.003Z,6540
2016-08-23T07:32:56.184Z,5764
2016-08-23T07:33:56.050Z,5104
2016-08-23T07:34:55.548Z,4644
2016-08-23T07:35:55.420Z,4388
2016-08-23T07:36:55.432Z,4176
2016-08-23T07:37:56.175Z,4152
2016-08-23T07:38:55.474Z,4124
2016-08-23T07:39:55.523Z,4044
2016-08-23T07:40:55.543Z,3948
2016-08-23T07:41:56.268Z,3560
2016-08-23T07:42:56.291Z,3324
2016-08-23T07:43:54.911Z,3280
2016-08-23T07:44:55.644Z,3280
2016-08-23T07:45:56.444Z,3372
2016-08-23T07:46:56.400Z,3584
2016-08-23T07:47:56.468Z,3664
2016-08-23T07:48:56.454Z,3604
2016-08-23T07:49:55.786Z,3412
2016-08-23T07:50:56.618Z,3484
2016-08-23T07:51:55.835Z,3704
2016-08-23T07:52:55.911Z,3888
2016-08-23T07:53:55.880Z,3856
2016-08-23T07:54:55.195Z,3720
2016-08-23T07:55:55.241Z,3484
2016-08-23T07:56:55.956Z,3280
2016-08-23T07:57:55.993Z,3236
2016-08-23T07:58:56.015Z,3356
2016-08-23T07:59:54.823Z,3368
2016-08-23T08:00:55.805Z,3384
2016-08-23T08:01:56.920Z,3272
2016-08-23T08:02:56.114Z,3196
2016-08-23T08:03:56.143Z,3224
2016-08-23T08:04:55.744Z,3244
2016-08-23T08:05:56.203Z,3500
2016-08-23T08:06:56.202Z,3764
2016-08-23T08:07:56.244Z,4040
2016-08-23T08:08:55.734Z,4540
2016-08-23T08:09:56.294Z,4812
2016-08-23T08:10:55.744Z,4764
2016-08-23T08:11:56.354Z,4744
2016-08-23T08:12:56.460Z,4548
2016-08-23T08:13:55.693Z,4340
2016-08-23T08:14:56.419Z,4476
2016-08-23T08:15:55.742Z,4672
2016-08-23T08:16:55.763Z,4516
2016-08-23T08:17:57.213Z,4240
2016-08-23T08:18:56.528Z,4308
2016-08-23T08:19:55.138Z,4488
2016-08-23T08:20:56.573Z,4776
2016-08-23T08:21:55.892Z,5036
2016-08-23T08:22:56.631Z,5220
2016-08-23T08:23:56.721Z,5668
2016-08-23T08:24:56.046Z,5688
2016-08-23T08:25:56.006Z,5504
2016-08-23T08:26:57.434Z,5400
2016-08-23T08:27:57.465Z,5504
2016-08-23T08:28:56.793Z,5700
2016-08-23T08:29:56.109Z,5932
2016-08-23T08:30:56.122Z,5620
2016-08-23T08:31:56.849Z,5196
2016-08-23T08:32:56.921Z,4916
2016-08-23T08:33:56.209Z,4584
2016-08-23T08:34:56.957Z,4692
2016-08-23T08:35:57.654Z,5560
2016-08-23T08:36:56.978Z,5820
2016-08-23T08:37:56.307Z,6316
2016-08-23T08:38:57.072Z,6916
2016-08-23T08:39:57.075Z,6860
2016-08-23T08:40:57.085Z,6928
2016-08-23T08:41:55.815Z,7196
2016-08-23T08:42:56.430Z,7340
2016-08-23T08:43:57.893Z,6616
2016-08-23T08:44:57.914Z,5900
2016-08-23T08:45:55.916Z,5616
2016-08-23T08:46:57.246Z,5668
2016-08-23T08:47:57.274Z,5640
2016-08-23T08:48:56.624Z,5872
2016-08-23T08:49:57.342Z,6928
2016-08-23T08:50:57.343Z,6784
2016-08-23T08:51:56.662Z,6548
2016-08-23T08:52:58.112Z,6264
2016-08-23T08:53:56.014Z,6232
2016-08-23T08:54:57.498Z,6344
2016-08-23T08:55:57.483Z,6576
2016-08-23T08:56:57.669Z,5680
2016-08-23T08:57:58.233Z,4960
2016-08-23T08:58:58.285Z,4676
2016-08-23T08:59:57.577Z,4996
2016-08-23T09:00:58.353Z,5160
2016-08-23T09:01:57.762Z,6200
2016-08-23T09:02:57.726Z,7604
2016-08-23T09:03:56.992Z,8932
2016-08-23T09:04:57.724Z,8860
2016-08-23T09:05:57.746Z,8164
2016-08-23T09:06:57.759Z,8684
2016-08-23T09:07:58.030Z,10508
2016-08-23T09:08:58.523Z,11764
2016-08-23T09:09:57.843Z,11772
2016-08-23T09:10:57.163Z,11148
2016-08-23T09:11:58.597Z,10280
2016-08-23T09:12:57.935Z,9972
2016-08-23T09:13:57.947Z,10524
2016-08-23T09:14:58.055Z,11072
2016-08-23T09:15:58.862Z,11288
2016-08-23T09:16:57.310Z,12448
2016-08-23T09:17:58.111Z,13548
2016-08-23T09:18:58.084Z,14920
2016-08-23T09:19:56.694Z,16480
2016-08-23T09:20:57.430Z,15872
2016-08-23T09:21:58.859Z,12000
2016-08-23T09:22:58.202Z,9916
2016-08-23T09:23:58.926Z,10228
2016-08-23T09:24:57.529Z,10040
2016-08-23T09:25:57.571Z,7020
2016-08-23T09:26:59.014Z,5396
2016-08-23T09:27:58.324Z,5736
2016-08-23T09:28:59.067Z,6700
2016-08-23T09:29:58.431Z,8228
2016-08-23T09:30:58.409Z,8952
2016-08-23T09:31:58.425Z,9580
2016-08-23T09:32:57.754Z,10000
2016-08-23T09:33:58.509Z,10372
2016-08-23T09:34:58.554Z,10100
2016-08-23T09:35:58.571Z,9616
2016-08-23T09:36:58.619Z,9400
2016-08-23T09:37:57.884Z,9192
2016-08-23T09:38:57.915Z,10120
2016-08-23T09:39:57.943Z,10412
2016-08-23T09:40:58.681Z,9324
2016-08-23T09:41:59.408Z,8780
2016-08-23T09:42:58.222Z,9004
2016-08-23T09:43:58.761Z,9880
2016-08-23T09:44:59.513Z,10552
2016-08-23T09:45:59.056Z,10580
2016-08-23T09:46:58.118Z,10864
2016-08-23T09:47:58.305Z,10928
2016-08-23T09:48:58.971Z,9948
2016-08-23T09:49:57.489Z,9080
2016-08-23T09:50:58.289Z,9084
2016-08-23T09:51:59.022Z,10092
2016-08-23T09:52:58.987Z,12956
2016-08-23T09:53:59.745Z,14836
2016-08-23T09:54:58.448Z,15968
2016-08-23T09:55:58.383Z,14952
2016-08-23T09:56:59.800Z,12312
2016-08-23T09:57:59.118Z,8880
2016-08-23T09:58:59.154Z,9196
2016-08-23T09:59:59.204Z,11660
2016-08-23T10:00:59.221Z,12592
2016-08-23T10:01:58.526Z,11388
2016-08-23T10:02:58.584Z,10600
2016-08-23T10:04:00.011Z,10732
2016-08-23T10:04:58.611Z,12308
2016-08-23T10:05:59.361Z,14576
2016-08-23T10:06:59.374Z,14384
2016-08-23T10:07:58.710Z,13072
2016-08-23T10:08:58.724Z,13776
2016-08-23T10:09:59.574Z,15776
2016-08-23T10:10:58.821Z,17920
2016-08-23T10:11:59.534Z,18560
2016-08-23T10:12:58.853Z,17920
2016-08-23T10:13:58.145Z,16864
2016-08-23T10:14:58.881Z,14560
2016-08-23T10:15:58.933Z,12824
2016-08-23T10:16:58.238Z,13132
2016-08-23T10:18:00.386Z,15176
2016-08-23T10:18:59.162Z,16160
2016-08-23T10:19:59.751Z,15048
2016-08-23T10:20:59.152Z,13596
2016-08-23T10:21:59.791Z,15116
2016-08-23T10:22:59.831Z,16800
2016-08-23T10:23:59.865Z,16960
2016-08-23T10:24:58.468Z,16896
2016-08-23T10:25:59.223Z,16544
2016-08-23T10:26:59.227Z,15712
2016-08-23T10:27:59.265Z,14420
2016-08-23T10:29:00.013Z,12860
2016-08-23T10:29:59.320Z,13564
2016-08-23T10:30:59.343Z,14168
2016-08-23T10:32:00.081Z,14740
2016-08-23T10:33:00.827Z,15680
2016-08-23T10:33:59.420Z,15380
2016-08-23T10:35:00.178Z,14684
2016-08-23T10:36:00.192Z,13468
2016-08-23T10:37:00.949Z,13144
2016-08-23T10:38:00.254Z,13220
2016-08-23T10:39:00.282Z,12108
2016-08-23T10:40:00.301Z,11448
2016-08-23T10:40:59.634Z,12568
2016-08-23T10:42:00.350Z,13504
2016-08-23T10:43:00.392Z,14436
2016-08-23T10:44:00.433Z,15548
2016-08-23T10:45:01.243Z,15396
2016-08-23T10:46:01.189Z,15936
2016-08-23T10:47:00.518Z,16576
2016-08-23T10:48:00.523Z,16992
2016-08-23T10:49:01.286Z,17472
2016-08-23T10:49:59.907Z,17696
2016-08-23T10:51:00.621Z,17568
2016-08-23T10:52:00.008Z,17312
2016-08-23T10:53:00.695Z,17984
2016-08-23T10:54:01.417Z,18240
2016-08-23T10:55:01.454Z,17184
2016-08-23T10:56:00.777Z,16928
2016-08-23T10:57:00.853Z,16160
2016-08-23T10:58:01.033Z,14608
2016-08-23T10:59:01.572Z,13300
2016-08-23T11:00:01.610Z,13540
2016-08-23T11:01:00.232Z,14788
2016-08-23T11:02:01.833Z,17792
2016-08-23T11:03:01.074Z,18048
2016-08-23T11:04:01.031Z,16512
2016-08-23T11:05:01.030Z,16640
2016-08-23T11:06:01.160Z,18656
2016-08-23T11:07:02.110Z,18656
2016-08-23T11:08:01.847Z,18432
2016-08-23T11:09:01.153Z,17184
2016-08-23T11:10:01.181Z,16512
2016-08-23T11:11:01.223Z,14568
2016-08-23T11:12:01.391Z,14220
2016-08-23T11:13:00.556Z,14748
2016-08-23T11:14:01.391Z,16096
2016-08-23T11:15:00.681Z,17536
2016-08-23T11:16:02.066Z,18048
2016-08-23T11:17:01.390Z,18432
2016-08-23T11:18:01.426Z,17184
2016-08-23T11:19:01.459Z,15560
2016-08-23T11:20:01.481Z,14720
2016-08-23T11:21:01.642Z,15020
2016-08-23T11:22:00.990Z,15724
2016-08-23T11:23:00.183Z,14956
2016-08-23T11:24:01.600Z,13476
2016-08-23T11:25:01.617Z,13504
2016-08-23T11:26:02.632Z,13060
2016-08-23T11:27:01.682Z,12776
2016-08-23T11:28:02.418Z,12316
2016-08-23T11:29:01.773Z,11364
2016-08-23T11:30:01.783Z,11856
2016-08-23T11:31:01.965Z,12000
2016-08-23T11:32:02.581Z,11184
2016-08-23T11:33:01.877Z,11428
2016-08-23T11:34:01.896Z,12648
2016-08-23T11:35:01.934Z,14068
2016-08-23T11:36:01.959Z,13184
2016-08-23T11:37:02.738Z,13068
2016-08-23T11:38:01.303Z,13004
2016-08-23T11:39:02.772Z,13924
2016-08-23T11:40:01.357Z,15872
2016-08-23T11:41:00.690Z,18176
2016-08-23T11:42:02.387Z,19168
2016-08-23T11:43:02.919Z,17024
2016-08-23T11:44:02.201Z,16032
2016-08-23T11:45:02.377Z,15936
2016-08-23T11:46:02.963Z,14960
2016-08-23T11:47:02.320Z,14536
2016-08-23T11:48:01.707Z,15252
2016-08-23T11:49:02.335Z,15616
2016-08-23T11:50:02.384Z,14632
2016-08-23T11:51:02.400Z,13396
2016-08-23T11:52:02.484Z,14356
2016-08-23T11:53:03.159Z,16288
2016-08-23T11:54:02.776Z,18112
2016-08-23T11:55:02.517Z,18656
2016-08-23T11:56:03.253Z,18528
2016-08-23T11:57:02.587Z,17888
2016-08-23T11:58:03.357Z,15840
2016-08-23T11:59:02.743Z,14040
2016-08-23T12:00:02.652Z,12488
2016-08-23T12:01:03.605Z,11256
2016-08-23T12:02:02.732Z,10420
2016-08-23T12:03:02.813Z,10304
2016-08-23T12:04:02.070Z,11144
2016-08-23T12:05:03.534Z,12056
2016-08-23T12:06:03.559Z,10844
2016-08-23T12:07:01.472Z,9388
2016-08-23T12:08:02.958Z,8648
2016-08-23T12:09:02.932Z,8184
2016-08-23T12:10:02.280Z,7416
2016-08-23T12:11:03.007Z,7748
2016-08-23T12:12:03.169Z,8292
2016-08-23T12:13:03.765Z,8360
2016-08-23T12:14:02.367Z,8404
2016-08-23T12:15:03.096Z,8460
2016-08-23T12:16:03.135Z,8640
2016-08-23T12:17:02.451Z,7900
2016-08-23T12:18:03.915Z,6876
2016-08-23T12:19:02.522Z,6512
2016-08-23T12:20:03.992Z,6620
2016-08-23T12:21:03.383Z,6760
2016-08-23T12:22:04.023Z,6924
2016-08-23T12:23:03.342Z,6480
2016-08-23T12:24:03.373Z,6820
2016-08-23T12:25:02.693Z,7304
2016-08-23T12:26:04.123Z,7436
2016-08-23T12:27:04.214Z,7408
2016-08-23T12:28:02.780Z,7292
2016-08-23T12:29:03.506Z,6928
2016-08-23T12:30:04.378Z,6880
2016-08-23T12:31:03.559Z,7004
2016-08-23T12:32:03.643Z,6832
2016-08-23T12:33:03.614Z,6988
2016-08-23T12:34:03.673Z,6724
2016-08-23T12:35:03.055Z,6644
2016-08-23T12:36:04.472Z,6728
2016-08-23T12:37:03.841Z,6464
2016-08-23T12:38:04.463Z,6656
2016-08-23T12:39:03.155Z,6260
2016-08-23T12:40:03.819Z,6540
2016-08-23T12:41:03.852Z,6768
2016-08-23T12:42:03.167Z,6712
2016-08-23T12:43:02.489Z,6480
2016-08-23T12:44:02.520Z,6260
2016-08-23T12:45:03.239Z,6328
2016-08-23T12:46:03.971Z,6648
2016-08-23T12:47:04.010Z,7112
2016-08-23T12:48:03.340Z,7804
2016-08-23T12:49:02.645Z,8928
2016-08-23T12:50:04.809Z,9052
2016-08-23T12:51:03.392Z,8772
2016-08-23T12:52:04.977Z,9148
2016-08-23T12:53:04.171Z,9752
2016-08-23T12:54:04.212Z,10764
2016-08-23T12:55:03.547Z,11940
2016-08-23T12:56:03.551Z,12824
2016-08-23T12:57:03.671Z,13160
2016-08-23T12:58:03.613Z,13688
2016-08-23T12:59:03.632Z,13956
2016-08-23T13:00:04.364Z,13576
2016-08-23T13:01:04.453Z,12808
2016-08-23T13:02:04.443Z,12292
2016-08-23T13:03:05.184Z,11992
2016-08-23T13:04:04.503Z,11596
2016-08-23T13:05:05.344Z,11128
2016-08-23T13:06:03.133Z,11256
2016-08-23T13:07:05.290Z,12300
2016-08-23T13:08:03.292Z,13508
2016-08-23T13:09:03.224Z,14332
2016-08-23T13:10:04.692Z,14756
2016-08-23T13:11:03.983Z,13564
2016-08-23T13:12:05.433Z,12516
2016-08-23T13:13:05.482Z,12084
2016-08-23T13:14:03.363Z,12344
2016-08-23T13:15:04.819Z,13084
2016-08-23T13:16:05.558Z,13852
2016-08-23T13:17:04.883Z,13096
2016-08-23T13:18:04.263Z,11732
2016-08-23T13:19:05.171Z,10132
2016-08-23T13:20:04.949Z,9644
2016-08-23T13:21:04.974Z,9892
2016-08-23T13:22:04.316Z,10276
2016-08-23T13:23:04.415Z,10248
2016-08-23T13:24:05.056Z,8764
2016-08-23T13:25:05.193Z,7484
2016-08-23T13:26:05.292Z,6640
2016-08-23T13:27:05.418Z,6244
2016-08-23T13:28:05.995Z,6656
2016-08-23T13:29:04.635Z,6332
2016-08-23T13:30:06.341Z,6644
2016-08-23T13:31:04.611Z,6712
2016-08-23T13:32:05.367Z,6840
2016-08-23T13:33:05.386Z,6928
2016-08-23T13:34:05.608Z,7060
2016-08-23T13:35:06.177Z,7264
2016-08-23T13:36:06.329Z,7384
2016-08-23T13:37:05.457Z,7524
2016-08-23T13:38:05.681Z,7720
2016-08-23T13:39:05.715Z,7948